createdAt,value
2017-05-22T00:00:25.559Z,86.50
2017-05-22T00:02:53.943Z,88.30
2017-05-22T00:05:22.256Z,87.20
2017-05-22T00:07:50.600Z,88.10
2017-05-22T00:10:18.979Z,89.00
2017-05-22T00:12:47.306Z,87.40
2017-05-22T00:15:15.622Z,85.50
2017-05-22T00:17:44.004Z,85.70
2017-05-22T00:20:12.401Z,87.00
2017-05-22T00:22:40.771Z,86.90
2017-05-22T00:25:09.120Z,85.80
2017-05-22T00:27:37.439Z,84.10
2017-05-22T00:30:05.806Z,86.70
2017-05-22T00:32:34.112Z,86.70
2017-05-22T00:35:02.422Z,87.00
2017-05-22T00:37:30.732Z,88.70
2017-05-22T00:39:59.060Z,86.90
2017-05-22T00:42:27.410Z,87.80
2017-05-22T00:44:55.787Z,86.90
2017-05-22T00:47:24.108Z,89.60
2017-05-22T00:49:52.444Z,87.40
2017-05-22T00:52:20.791Z,89.70
2017-05-22T00:54:49.107Z,88.80
2017-05-22T00:57:17.418Z,89.90
2017-05-22T00:59:45.738Z,87.60
2017-05-22T01:02:14.134Z,88.60
2017-05-22T01:04:42.511Z,90.40
2017-05-22T01:07:10.824Z,89.10
2017-05-22T01:09:39.181Z,90.30
2017-05-22T01:12:07.503Z,89.90
2017-05-22T01:14:35.826Z,88.70
2017-05-22T01:17:04.934Z,89.20
2017-05-22T01:19:33.307Z,90.20
2017-05-22T01:22:01.629Z,90.20
2017-05-22T01:24:29.966Z,89.10
2017-05-22T01:26:58.348Z,89.50
2017-05-22T01:29:26.669Z,90.00
2017-05-22T01:31:54.978Z,90.00
2017-05-22T01:34:23.378Z,90.40
2017-05-22T01:36:51.690Z,89.40
2017-05-22T01:39:20.036Z,90.00
2017-05-22T01:41:48.426Z,90.70
2017-05-22T01:44:16.738Z,91.50
2017-05-22T01:46:45.082Z,91.40
2017-05-22T01:49:13.458Z,91.30
2017-05-22T01:51:41.766Z,91.10
2017-05-22T01:54:10.118Z,90.70
2017-05-22T01:56:38.491Z,91.60
2017-05-22T01:59:06.873Z,90.70
2017-05-22T02:01:35.190Z,91.30
2017-05-22T02:04:03.544Z,91.90
2017-05-22T02:06:31.918Z,91.10
2017-05-22T02:09:00.303Z,91.10
2017-05-22T02:11:28.622Z,92.20
2017-05-22T02:13:56.959Z,91.60
2017-05-22T02:16:25.335Z,91.70
2017-05-22T02:18:53.716Z,92.20
2017-05-22T02:21:22.033Z,92.20
2017-05-22T02:23:50.363Z,91.80
2017-05-22T02:26:18.742Z,92.50
2017-05-22T02:28:47.122Z,91.80
2017-05-22T02:31:15.431Z,92.70
2017-05-22T02:33:43.072Z,92.70
2017-05-22T02:36:11.411Z,92.80
2017-05-22T02:38:39.822Z,92.70
2017-05-22T02:41:08.133Z,92.10
2017-05-22T02:43:36.494Z,92.20
2017-05-22T02:46:04.863Z,92.10
2017-05-22T02:48:33.250Z,92.00
2017-05-22T02:51:01.563Z,92.00
2017-05-22T02:53:29.906Z,92.40
2017-05-22T02:55:58.219Z,92.70
2017-05-22T02:58:26.568Z,92.40
2017-05-22T03:00:54.878Z,92.40
2017-05-22T03:03:23.184Z,92.80
2017-05-22T03:05:51.500Z,92.20
2017-05-22T03:08:19.820Z,92.10
2017-05-22T03:10:48.155Z,92.20
2017-05-22T03:13:16.530Z,93.00
2017-05-22T03:15:44.870Z,92.40
2017-05-22T03:18:13.185Z,93.10
2017-05-22T03:20:41.564Z,93.00
2017-05-22T03:23:09.941Z,92.10
2017-05-22T03:25:38.327Z,92.30
2017-05-22T03:28:06.641Z,92.40
2017-05-22T03:30:34.987Z,92.20
2017-05-22T03:33:03.299Z,92.70
2017-05-22T03:35:32.374Z,92.50
2017-05-22T03:38:00.750Z,92.60
2017-05-22T03:40:29.123Z,92.70
2017-05-22T03:42:57.470Z,92.90
2017-05-22T03:51:13.705Z,92.20
2017-05-22T03:53:42.123Z,93.00
2017-05-22T03:56:10.502Z,92.20
2017-05-22T03:58:38.835Z,92.50
2017-05-22T04:01:07.264Z,93.10
2017-05-22T04:03:35.648Z,92.00
2017-05-22T04:06:03.961Z,91.70
2017-05-22T04:08:32.305Z,92.30
2017-05-22T04:11:00.680Z,92.40
2017-05-22T04:13:29.063Z,92.10
2017-05-22T04:15:57.443Z,92.50
2017-05-22T04:18:25.818Z,92.00
2017-05-22T04:20:54.139Z,92.10
2017-05-22T04:23:22.471Z,92.00
2017-05-22T04:25:50.810Z,91.40
2017-05-22T04:28:19.122Z,91.60
2017-05-22T04:30:47.462Z,91.70
2017-05-22T04:33:15.779Z,91.40
2017-05-22T04:35:44.176Z,91.30
2017-05-22T04:38:12.494Z,91.00
2017-05-22T04:40:40.855Z,90.80
2017-05-22T04:43:09.183Z,91.20
2017-05-22T04:45:37.519Z,90.20
2017-05-22T04:48:05.862Z,90.60
2017-05-22T04:59:15.227Z,90.20
2017-05-22T05:01:43.644Z,89.80
2017-05-22T05:04:11.962Z,89.60
2017-05-22T05:06:40.286Z,88.50
2017-05-22T05:09:08.682Z,85.60
2017-05-22T05:11:37.076Z,84.50
2017-05-22T05:14:05.455Z,84.10
2017-05-22T05:16:33.778Z,74.30
2017-05-22T05:19:02.198Z,69.10
2017-05-22T05:21:30.518Z,63.60
2017-05-22T05:23:58.962Z,59.80
2017-05-22T05:26:27.281Z,54.00
2017-05-22T05:28:55.624Z,54.40
2017-05-22T05:31:23.939Z,51.90
2017-05-22T05:33:52.282Z,52.30
2017-05-22T05:36:20.600Z,49.90
2017-05-22T05:38:48.948Z,48.80
2017-05-22T05:41:17.723Z,48.80
2017-05-22T05:43:46.034Z,50.40
2017-05-22T05:46:14.379Z,46.90
2017-05-22T05:48:42.758Z,48.10
2017-05-22T05:51:11.098Z,49.00
2017-05-22T05:53:39.412Z,47.80
2017-05-22T05:56:07.744Z,48.40
2017-05-22T05:58:36.057Z,47.30
2017-05-22T06:01:04.466Z,44.90
2017-05-22T06:03:32.838Z,45.60
2017-05-22T06:06:01.219Z,47.30
2017-05-22T06:08:29.570Z,46.80
2017-05-22T06:10:57.910Z,45.70
2017-05-22T06:13:26.250Z,44.80
2017-05-22T06:15:54.627Z,43.50
2017-05-22T06:18:22.966Z,45.90
2017-05-22T06:20:51.297Z,45.30
2017-05-22T06:23:19.599Z,43.70
2017-05-22T06:25:47.951Z,45.80
2017-05-22T06:28:16.329Z,43.10
2017-05-22T06:30:44.714Z,44.10
2017-05-22T06:33:13.092Z,41.10
2017-05-22T06:35:41.470Z,40.90
2017-05-22T06:38:09.774Z,41.20
2017-05-22T06:40:38.123Z,43.00
2017-05-22T06:43:06.511Z,38.60
2017-05-22T06:45:34.890Z,40.70
2017-05-22T06:48:03.216Z,41.90
2017-05-22T06:50:31.554Z,37.80
2017-05-22T06:52:59.899Z,37.80
2017-05-22T06:55:28.211Z,37.90
2017-05-22T06:57:56.546Z,38.10
2017-05-22T07:00:24.971Z,39.20
2017-05-22T07:02:53.322Z,39.00
2017-05-22T07:05:21.631Z,36.80
2017-05-22T07:07:49.994Z,36.60
2017-05-22T07:10:18.321Z,38.10
2017-05-22T07:12:46.651Z,39.80
2017-05-22T07:15:15.431Z,39.90
2017-05-22T07:17:43.824Z,35.60
2017-05-22T07:20:12.203Z,36.30
2017-05-22T07:22:40.583Z,35.90
2017-05-22T07:25:08.983Z,39.70
2017-05-22T07:27:37.304Z,40.80
2017-05-22T07:30:05.646Z,37.60
2017-05-22T07:32:34.007Z,36.60
2017-05-22T07:35:02.326Z,40.20
2017-05-22T07:37:30.634Z,39.90
2017-05-22T07:39:58.953Z,41.20
2017-05-22T07:42:27.287Z,37.70
2017-05-22T07:44:55.599Z,36.80
2017-05-22T07:47:23.978Z,42.70
2017-05-22T07:49:52.365Z,40.90
2017-05-22T07:52:20.703Z,39.60
2017-05-22T07:54:49.111Z,38.10
2017-05-22T07:57:17.423Z,39.10
2017-05-22T07:59:45.731Z,40.00
2017-05-22T08:02:14.059Z,39.80
2017-05-22T08:04:42.371Z,39.90
2017-05-22T08:07:10.697Z,40.60
2017-05-22T08:09:39.087Z,42.60
2017-05-22T08:12:07.393Z,44.60
2017-05-22T08:14:35.702Z,40.10
2017-05-22T08:17:04.610Z,42.10
2017-05-22T08:19:32.924Z,39.70
2017-05-22T08:22:01.235Z,40.00
2017-05-22T08:24:29.578Z,44.30
2017-05-22T08:26:57.953Z,41.00
2017-05-22T08:29:26.334Z,40.40
2017-05-22T08:31:54.646Z,46.70
2017-05-22T08:34:22.266Z,47.20
2017-05-22T08:36:50.655Z,41.60
2017-05-22T08:39:19.033Z,38.20
2017-05-22T08:41:47.402Z,43.00
2017-05-22T08:44:15.718Z,36.20
2017-05-22T08:46:44.073Z,38.20
2017-05-22T08:49:12.451Z,37.60
2017-05-22T08:51:40.829Z,38.00
2017-05-22T08:54:09.212Z,39.40
2017-05-22T08:56:37.515Z,35.20
2017-05-22T08:59:05.820Z,35.30
2017-05-22T09:01:34.142Z,38.00
2017-05-22T09:04:02.456Z,39.40
2017-05-22T09:06:30.815Z,37.70
2017-05-22T09:08:59.195Z,36.50
2017-05-22T09:11:27.539Z,35.70
2017-05-22T09:13:55.846Z,35.90
2017-05-22T09:16:24.163Z,33.50
2017-05-22T09:18:52.483Z,35.70
2017-05-22T09:21:20.810Z,39.80
2017-05-22T09:23:49.118Z,33.20
2017-05-22T09:26:17.430Z,37.50
2017-05-22T09:28:45.748Z,40.90
2017-05-22T09:31:14.066Z,39.00
2017-05-22T09:33:42.407Z,38.10
2017-05-22T09:36:10.723Z,35.70
2017-05-22T09:38:39.042Z,34.30
2017-05-22T09:41:07.394Z,36.00
2017-05-22T09:43:35.712Z,38.60
2017-05-22T09:46:04.058Z,35.30
2017-05-22T09:48:32.371Z,34.70
2017-05-22T09:51:00.726Z,36.40
2017-05-22T09:53:29.038Z,37.60
2017-05-22T09:55:57.393Z,42.10
2017-05-22T09:58:25.759Z,42.10
2017-05-22T10:00:54.112Z,39.20
2017-05-22T10:03:22.426Z,39.30
2017-05-22T10:05:50.802Z,40.00
2017-05-22T10:08:19.180Z,40.30
2017-05-22T10:10:47.556Z,42.00
2017-05-22T10:13:15.880Z,43.30
2017-05-22T10:15:44.191Z,42.10
2017-05-22T10:18:12.592Z,39.50
2017-05-22T10:20:40.909Z,40.00
2017-05-22T10:23:09.219Z,42.50
2017-05-22T10:25:37.536Z,38.70
2017-05-22T10:28:05.846Z,39.10
2017-05-22T10:30:34.191Z,42.10
2017-05-22T10:33:02.498Z,35.70
2017-05-22T10:35:30.830Z,41.50
2017-05-22T10:37:59.145Z,41.40
2017-05-22T10:40:27.511Z,42.50
2017-05-22T10:42:55.822Z,44.60
2017-05-22T10:45:24.128Z,40.10
2017-05-22T10:47:52.436Z,42.90
2017-05-22T10:50:20.905Z,48.00
2017-05-22T10:52:49.214Z,44.60
2017-05-22T10:55:17.592Z,45.30
2017-05-22T10:57:45.954Z,43.60
2017-05-22T11:00:14.270Z,50.10
2017-05-22T11:02:42.610Z,45.60
2017-05-22T11:05:10.923Z,39.70
2017-05-22T11:07:39.293Z,37.60
2017-05-22T11:10:07.656Z,38.90
2017-05-22T11:12:36.038Z,40.80
2017-05-22T11:15:04.412Z,43.40
2017-05-22T11:17:32.710Z,41.90
2017-05-22T11:20:01.074Z,44.90
2017-05-22T11:22:29.448Z,40.20
2017-05-22T11:24:57.950Z,41.10
2017-05-22T11:27:26.328Z,40.90
2017-05-22T11:29:54.687Z,40.40
2017-05-22T11:32:23.082Z,39.40
2017-05-22T11:34:51.460Z,38.00
2017-05-22T11:37:19.770Z,39.50
2017-05-22T11:39:48.091Z,40.50
2017-05-22T11:42:16.489Z,42.70
2017-05-22T11:44:44.862Z,40.40
2017-05-22T11:47:13.189Z,41.90
2017-05-22T11:49:41.511Z,43.40
2017-05-22T11:52:09.847Z,43.60
2017-05-22T11:54:38.187Z,41.70
2017-05-22T11:57:06.490Z,43.40
2017-05-22T11:59:34.807Z,40.40
2017-05-22T12:02:03.222Z,46.00
2017-05-22T12:04:31.533Z,41.40
2017-05-22T12:06:59.843Z,45.40
2017-05-22T12:09:28.259Z,46.80
2017-05-22T12:11:56.570Z,44.00
2017-05-22T12:14:24.902Z,45.10
2017-05-22T12:16:53.214Z,46.00
2017-05-22T12:19:21.587Z,46.40
2017-05-22T12:21:49.956Z,44.50
2017-05-22T12:24:18.272Z,46.40
2017-05-22T12:26:46.583Z,46.40
2017-05-22T12:29:15.002Z,45.40
2017-05-22T12:31:43.375Z,46.30
2017-05-22T12:34:11.696Z,46.00
2017-05-22T12:36:40.126Z,44.80
2017-05-22T12:39:08.439Z,42.40
2017-05-22T12:41:36.751Z,40.90
2017-05-22T12:44:05.058Z,42.70
2017-05-22T12:46:33.367Z,45.20
2017-05-22T12:49:01.674Z,44.50
2017-05-22T12:51:29.978Z,44.30
2017-05-22T12:53:58.315Z,42.40
2017-05-22T12:56:26.670Z,44.80
2017-05-22T12:58:55.012Z,44.30
2017-05-22T13:01:23.326Z,44.50
2017-05-22T13:03:51.646Z,45.70
2017-05-22T13:06:19.980Z,41.90
2017-05-22T13:08:48.286Z,46.20
2017-05-22T13:11:16.594Z,40.70
2017-05-22T13:13:44.914Z,41.90
2017-05-22T13:16:13.246Z,41.20
2017-05-22T13:18:41.570Z,43.50
2017-05-22T13:21:09.917Z,40.60
2017-05-22T13:23:38.341Z,40.50
2017-05-22T13:26:06.712Z,41.30
2017-05-22T13:28:35.018Z,41.00
2017-05-22T13:31:03.334Z,41.40
2017-05-22T13:33:31.750Z,42.60
2017-05-22T13:36:00.131Z,42.90
2017-05-22T13:38:28.512Z,42.30
2017-05-22T13:40:56.831Z,41.40
2017-05-22T13:43:25.167Z,43.10
2017-05-22T13:45:53.471Z,39.80
2017-05-22T13:48:21.812Z,41.00
2017-05-22T13:50:50.114Z,40.20
2017-05-22T13:53:18.487Z,40.10
2017-05-22T13:55:46.868Z,42.00
2017-05-22T13:58:15.182Z,41.80
2017-05-22T14:00:43.520Z,41.20
2017-05-22T14:03:11.861Z,42.40
2017-05-22T14:05:40.214Z,41.70
2017-05-22T14:08:08.547Z,41.60
2017-05-22T14:10:36.929Z,44.80
2017-05-22T14:13:05.301Z,43.70
2017-05-22T14:15:33.694Z,42.90
2017-05-22T14:18:02.004Z,44.60
2017-05-22T14:20:30.320Z,44.10
2017-05-22T14:22:58.651Z,43.90
2017-05-22T14:25:27.011Z,41.90
2017-05-22T14:27:55.347Z,42.90
2017-05-22T14:30:23.686Z,42.50
2017-05-22T14:32:52.029Z,43.70
2017-05-22T14:35:20.350Z,42.60
2017-05-22T14:37:48.698Z,42.80
2017-05-22T14:40:17.002Z,41.40
2017-05-22T14:42:45.313Z,42.50
2017-05-22T14:45:13.615Z,43.80
2017-05-22T14:47:42.022Z,44.50
2017-05-22T14:50:10.363Z,44.80
2017-05-22T14:52:38.678Z,42.80
2017-05-22T14:55:07.027Z,46.20
2017-05-22T14:57:35.335Z,44.80
2017-05-22T15:00:03.679Z,46.70
2017-05-22T15:02:32.098Z,45.00
2017-05-22T15:05:00.435Z,43.20
2017-05-22T15:07:28.742Z,43.60
2017-05-22T15:09:57.123Z,44.20
2017-05-22T15:12:25.516Z,45.00
2017-05-22T15:14:53.828Z,42.90
2017-05-22T15:17:22.162Z,44.30
2017-05-22T15:19:50.535Z,46.70
2017-05-22T15:22:18.852Z,46.10
2017-05-22T15:24:47.198Z,44.60
2017-05-22T15:27:15.583Z,43.50
2017-05-22T15:29:43.893Z,43.60
2017-05-22T15:32:12.339Z,43.00
2017-05-22T15:34:40.645Z,43.20
2017-05-22T15:37:08.949Z,43.10
2017-05-22T15:39:37.260Z,43.30
2017-05-22T15:42:05.568Z,43.70
2017-05-22T15:44:33.875Z,44.10
2017-05-22T15:47:02.188Z,46.80
2017-05-22T15:49:30.497Z,44.30
2017-05-22T15:51:58.806Z,44.10
2017-05-22T15:54:27.242Z,43.30
2017-05-22T15:56:55.550Z,43.00
2017-05-22T15:59:23.908Z,42.70
2017-05-22T16:01:52.290Z,43.70
2017-05-22T16:04:20.590Z,43.60
2017-05-22T16:06:48.909Z,42.80
2017-05-22T16:09:17.231Z,44.40
2017-05-22T16:11:45.610Z,41.30
2017-05-22T16:14:13.978Z,42.00
2017-05-22T16:16:42.372Z,43.20
2017-05-22T16:19:10.758Z,43.60
2017-05-22T16:21:39.071Z,43.20
2017-05-22T16:24:07.402Z,42.70
2017-05-22T16:26:35.787Z,44.50
2017-05-22T16:29:04.098Z,45.40
2017-05-22T16:31:32.442Z,45.80
2017-05-22T16:34:00.822Z,44.30
2017-05-22T16:36:29.140Z,44.00
2017-05-22T16:38:57.479Z,44.10
2017-05-22T16:41:25.786Z,46.00
2017-05-22T16:43:54.143Z,45.20
2017-05-22T16:46:22.467Z,44.30
2017-05-22T16:48:50.778Z,43.40
2017-05-22T16:51:19.099Z,44.00
2017-05-22T16:53:47.406Z,44.30
2017-05-22T16:56:15.710Z,44.00
2017-05-22T16:58:44.025Z,45.40
2017-05-22T17:01:12.339Z,44.70
2017-05-22T17:03:40.642Z,45.40
2017-05-22T17:06:09.006Z,45.20
2017-05-22T17:08:37.302Z,46.90
2017-05-22T17:11:05.647Z,44.80
2017-05-22T17:13:33.956Z,46.60
2017-05-22T17:16:02.271Z,45.30
2017-05-22T17:18:30.638Z,46.10
2017-05-22T17:20:58.959Z,45.90
2017-05-22T17:23:27.297Z,45.10
2017-05-22T17:25:55.679Z,44.70
2017-05-22T17:28:24.049Z,46.20
2017-05-22T17:30:52.427Z,45.60
2017-05-22T17:33:20.806Z,45.10
2017-05-22T17:35:49.187Z,45.30
2017-05-22T17:38:17.571Z,45.20
2017-05-22T17:40:46.010Z,46.40
2017-05-22T17:43:14.314Z,45.50
2017-05-22T17:45:42.799Z,46.20
2017-05-22T17:48:11.194Z,45.60
2017-05-22T17:50:39.571Z,45.70
2017-05-22T17:53:07.877Z,45.70
2017-05-22T17:55:36.207Z,46.20
2017-05-22T17:58:04.516Z,45.80
2017-05-22T18:00:32.891Z,46.00
2017-05-22T18:03:01.204Z,46.70
2017-05-22T18:05:29.652Z,46.00
2017-05-22T18:07:57.963Z,46.50
2017-05-22T18:10:25.502Z,46.40
2017-05-22T18:12:53.834Z,48.20
2017-05-22T18:15:22.252Z,48.10
2017-05-22T18:17:50.592Z,48.20
2017-05-22T18:20:19.012Z,48.50
2017-05-22T18:22:47.386Z,48.80
2017-05-22T18:25:15.690Z,48.50
2017-05-22T18:27:44.044Z,49.20
2017-05-22T18:30:12.427Z,48.50
2017-05-22T18:32:40.734Z,48.70
2017-05-22T18:35:09.039Z,49.30
2017-05-22T18:37:37.354Z,50.10
2017-05-22T18:40:05.687Z,49.60
2017-05-22T18:42:34.027Z,49.60
2017-05-22T18:45:02.368Z,49.00
2017-05-22T18:47:30.686Z,49.90
2017-05-22T18:49:59.047Z,49.70
2017-05-22T18:52:27.432Z,50.00
2017-05-22T18:54:55.784Z,50.50
2017-05-22T18:57:24.087Z,50.80
2017-05-22T18:59:52.475Z,51.80
2017-05-22T19:02:20.795Z,51.10
2017-05-22T19:04:49.102Z,52.60
2017-05-22T19:07:17.406Z,51.50
2017-05-22T19:09:45.706Z,51.70
2017-05-22T19:12:14.318Z,52.00
2017-05-22T19:14:42.629Z,52.50
2017-05-22T19:17:10.972Z,52.40
2017-05-22T19:19:39.284Z,52.40
2017-05-22T19:22:07.614Z,52.90
2017-05-22T19:24:35.924Z,53.20
2017-05-22T19:27:04.234Z,52.80
2017-05-22T19:29:32.578Z,53.50
2017-05-22T19:32:00.899Z,54.70
2017-05-22T19:34:29.228Z,53.60
2017-05-22T19:36:57.553Z,53.90
2017-05-22T19:39:25.917Z,54.20
2017-05-22T19:41:54.222Z,54.40
2017-05-22T19:44:22.558Z,54.30
2017-05-22T19:46:50.944Z,54.60
2017-05-22T19:49:19.283Z,55.10
2017-05-22T19:51:47.598Z,55.40
2017-05-22T19:54:15.908Z,55.40
2017-05-22T19:56:44.310Z,55.70
2017-05-22T19:59:12.626Z,55.80
2017-05-22T20:01:40.951Z,56.00
2017-05-22T20:04:09.259Z,56.00
2017-05-22T20:06:37.710Z,55.90
2017-05-22T20:09:06.015Z,56.10
2017-05-22T20:11:34.336Z,55.90
2017-05-22T20:14:02.669Z,56.20
2017-05-22T20:16:30.971Z,56.30
2017-05-22T20:18:59.308Z,56.90
2017-05-22T20:21:27.622Z,58.30
2017-05-22T20:23:56.068Z,59.20
2017-05-22T20:26:24.375Z,59.60
2017-05-22T20:28:52.715Z,60.70
2017-05-22T20:31:21.028Z,61.60
2017-05-22T20:33:49.347Z,62.30
2017-05-22T20:36:17.666Z,62.90
2017-05-22T20:38:45.972Z,63.90
2017-05-22T20:41:14.317Z,60.80
2017-05-22T20:43:42.695Z,61.30
2017-05-22T20:46:11.038Z,60.70
2017-05-22T20:48:39.351Z,59.50
2017-05-22T20:51:07.692Z,60.00
2017-05-22T20:53:36.005Z,59.60
2017-05-22T20:56:04.383Z,61.20
2017-05-22T20:58:32.687Z,61.40
2017-05-22T21:01:01.047Z,61.00
2017-05-22T21:03:29.369Z,61.70
2017-05-22T21:05:57.690Z,64.60
2017-05-22T21:08:26.042Z,64.10
2017-05-22T21:10:54.462Z,63.30
2017-05-22T21:13:22.856Z,63.70
2017-05-22T21:15:51.171Z,66.00
2017-05-22T21:18:19.520Z,65.60
2017-05-22T21:20:47.824Z,66.80
2017-05-22T21:23:16.158Z,67.20
2017-05-22T21:25:44.474Z,68.70
2017-05-22T21:28:12.815Z,68.20
2017-05-22T21:30:41.190Z,68.30
2017-05-22T21:33:09.531Z,69.40
2017-05-22T21:35:37.863Z,70.10
2017-05-22T21:38:06.180Z,71.00
2017-05-22T21:40:34.543Z,71.90
2017-05-22T21:43:02.850Z,72.30
2017-05-22T21:45:31.266Z,73.00
2017-05-22T21:47:59.654Z,72.40
2017-05-22T21:50:27.967Z,72.80
2017-05-22T21:52:56.413Z,73.60
2017-05-22T21:55:24.730Z,73.50
2017-05-22T21:57:53.173Z,74.10
2017-05-22T22:00:21.494Z,74.10
2017-05-22T22:02:49.836Z,74.40
2017-05-22T22:05:18.211Z,74.40
2017-05-22T22:07:46.596Z,75.20
2017-05-22T22:10:14.905Z,75.10
2017-05-22T22:12:43.216Z,76.50
2017-05-22T22:15:11.519Z,75.40
2017-05-22T22:17:39.863Z,77.30
2017-05-22T22:20:08.200Z,75.50
2017-05-22T22:22:36.544Z,76.00
2017-05-22T22:25:04.935Z,76.20
2017-05-22T22:27:33.314Z,75.40
2017-05-22T22:30:01.698Z,75.40
2017-05-22T22:32:30.096Z,75.80
2017-05-22T22:34:58.440Z,74.50
2017-05-22T22:37:26.762Z,75.60
2017-05-22T22:39:55.136Z,75.20
2017-05-22T22:42:23.502Z,74.40
2017-05-22T22:44:51.814Z,74.20
2017-05-22T22:47:20.130Z,75.40
2017-05-22T22:49:48.551Z,74.00
2017-05-22T22:52:16.861Z,74.10
2017-05-22T22:54:45.167Z,74.30
2017-05-22T22:57:13.575Z,72.90
2017-05-22T22:59:41.882Z,71.80
2017-05-22T23:02:10.232Z,73.10
2017-05-22T23:04:38.538Z,73.50
2017-05-22T23:07:06.842Z,76.00
2017-05-22T23:09:35.155Z,73.20
2017-05-22T23:12:03.466Z,74.10
2017-05-22T23:14:31.820Z,73.60
2017-05-22T23:17:00.203Z,72.30
2017-05-22T23:19:28.510Z,71.90
2017-05-22T23:21:56.820Z,71.30
2017-05-22T23:24:25.156Z,73.60
2017-05-22T23:26:53.471Z,71.60
2017-05-22T23:29:21.779Z,72.60
2017-05-22T23:31:50.179Z,72.70
2017-05-22T23:34:18.498Z,74.10
2017-05-22T23:36:46.818Z,74.40
2017-05-22T23:39:15.210Z,73.00
2017-05-22T23:41:43.594Z,74.00
2017-05-22T23:44:11.975Z,73.10
2017-05-22T23:46:40.291Z,73.10
2017-05-22T23:49:25.215Z,74.30
2017-05-22T23:51:53.602Z,73.10
2017-05-22T23:54:21.985Z,72.30
2017-05-22T23:56:50.307Z,72.50
2017-05-22T23:59:18.610Z,72.30
